NVVV

Port Vila Bauerfield Airport

Port Vila, Vanuatu
TAF NVVV 230430Z 2306/2406 09009KT 9999 SCT020 PROB40 INTER 2306/2312 9000 -SHRA BKN018
Issued Valid From Valid To
Apr-23 @ 04:30 UTC
(5 hours ago)
Apr-23 @ 06:00 UTC
(4 hours ago)
Apr-24 @ 06:00 UTC
(in 20 hours)
Apr-23 @ 06:00 to Apr-24 @ 06:00
TAF NVVV 230430Z 2306/2406 09009KT 9999 SCT020
Wind Visibility Clouds
90° at 9 knots 10,000+ meters
  • Scattered at 2,000' AGL
Temporary  (Probability 40%) Apr-23 @ 06:00 to Apr-23 @ 12:00
PROB40 INTER 2306/2312 9000 -SHRA BKN018
Visibility Clouds Conditions
8,996 meters
  • Broken at 1,800' AGL
  • Light Rain
TAF NVVV 230430Z 2306/2406 09009KT 9999 SCT020 PROB40 INTER 2306/2312 9000 -SHRA BKN018
Issued Apr-23 @ 04:30 UTC
(5 hours ago)
Valid From Apr-23 @ 06:00 UTC
(4 hours ago)
Valid To Apr-24 @ 06:00 UTC
(in 20 hours)
Apr-23 @ 06:00 - Apr-24 @ 06:00
Wind Visibility
90° at 9 knots 10,000+ meters
Clouds
  • Scattered at 2,000' AGL
Probability 40% Temporary Apr-23 @ 06:00 - Apr-23 @ 12:00
Clouds
  • Broken at 1,800' AGL
Conditions
  • Light Rain